createdAt,value
2018-02-04T00:00:18.374Z,1004.30
2018-02-04T00:01:18.467Z,1004.27
2018-02-04T00:02:18.350Z,1004.33
2018-02-04T00:03:18.339Z,1004.32
2018-02-04T00:04:18.324Z,1004.31
2018-02-04T00:05:18.320Z,1004.33
2018-02-04T00:06:18.308Z,1004.36
2018-02-04T00:07:18.394Z,1004.34
2018-02-04T00:08:18.276Z,1004.40
2018-02-04T00:09:18.264Z,1004.44
2018-02-04T00:10:18.259Z,1004.47
2018-02-04T00:11:18.252Z,1004.47
2018-02-04T00:12:18.236Z,1004.44
2018-02-04T00:13:18.528Z,1004.46
2018-02-04T00:14:18.208Z,1004.47
2018-02-04T00:15:18.197Z,1004.46
2018-02-04T00:16:18.191Z,1004.46
2018-02-04T00:17:18.176Z,1004.47
2018-02-04T00:18:18.165Z,1004.51
2018-02-04T00:19:18.404Z,1004.48
2018-02-04T00:20:18.135Z,1004.51
2018-02-04T00:21:18.128Z,1004.52
2018-02-04T00:22:18.116Z,1004.51
2018-02-04T00:23:18.107Z,1004.52
2018-02-04T00:24:18.089Z,1004.58
2018-02-04T00:25:18.180Z,1004.57
2018-02-04T00:26:18.076Z,1004.59
2018-02-04T00:27:18.061Z,1004.58
2018-02-04T00:28:18.045Z,1004.58
2018-02-04T00:29:18.039Z,1004.58
2018-02-04T00:30:18.022Z,1004.59
2018-02-04T00:31:18.022Z,1004.59
2018-02-04T00:32:17.997Z,1004.62
2018-02-04T00:33:17.990Z,1004.67
2018-02-04T00:34:17.998Z,1004.63
2018-02-04T00:35:17.960Z,1004.69
2018-02-04T00:36:17.962Z,1004.71
2018-02-04T00:37:17.937Z,1004.79
2018-02-04T00:38:17.931Z,1004.83
2018-02-04T00:39:17.923Z,1004.79
2018-02-04T00:40:17.905Z,1004.81
2018-02-04T00:41:17.892Z,1004.84
2018-02-04T00:42:17.883Z,1004.86
2018-02-04T00:43:17.972Z,1004.86
2018-02-04T00:44:17.863Z,1004.86
2018-02-04T00:45:17.905Z,1004.87
2018-02-04T00:46:17.833Z,1004.84
2018-02-04T00:47:17.821Z,1004.90
2018-02-04T00:48:17.827Z,1004.88
2018-02-04T00:49:17.800Z,1004.87
2018-02-04T00:50:17.787Z,1004.92
2018-02-04T00:51:17.775Z,1004.94
2018-02-04T00:52:17.756Z,1004.97
2018-02-04T00:53:17.794Z,1004.97
2018-02-04T00:54:17.743Z,1005.02
2018-02-04T00:55:17.729Z,1005.02
2018-02-04T00:56:17.711Z,1005.08
2018-02-04T00:57:17.698Z,1005.04
2018-02-04T00:58:17.693Z,1005.07
2018-02-04T00:59:17.680Z,1005.08
2018-02-04T01:00:17.671Z,1005.08
2018-02-04T01:01:17.803Z,1005.13
2018-02-04T01:02:17.636Z,1005.16
2018-02-04T01:03:17.626Z,1005.19
2018-02-04T01:04:17.618Z,1005.19
2018-02-04T01:05:17.601Z,1005.19
2018-02-04T01:06:17.599Z,1005.22
2018-02-04T01:07:17.581Z,1005.25
2018-02-04T01:08:17.572Z,1005.17
2018-02-04T01:09:17.559Z,1005.24
2018-02-04T01:10:17.546Z,1005.26
2018-02-04T01:11:17.532Z,1005.29
2018-02-04T01:12:17.520Z,1005.28
2018-02-04T01:13:17.514Z,1005.26
2018-02-04T01:14:17.499Z,1005.30
2018-02-04T01:15:17.481Z,1005.27
2018-02-04T01:16:17.473Z,1005.32
2018-02-04T01:17:17.460Z,1005.36
2018-02-04T01:18:17.462Z,1005.33
2018-02-04T01:19:17.642Z,1005.41
2018-02-04T01:20:17.424Z,1005.43
2018-02-04T01:21:17.412Z,1005.39
2018-02-04T01:22:17.404Z,1005.42
2018-02-04T01:23:17.398Z,1005.39
2018-02-04T01:24:17.384Z,1005.44
2018-02-04T01:25:17.366Z,1005.48
2018-02-04T01:26:17.354Z,1005.48
2018-02-04T01:27:17.339Z,1005.46
2018-02-04T01:28:17.334Z,1005.49
2018-02-04T01:29:17.322Z,1005.51
2018-02-04T01:30:17.306Z,1005.53
2018-02-04T01:31:17.297Z,1005.58
2018-02-04T01:32:17.285Z,1005.57
2018-02-04T01:33:17.271Z,1005.59
2018-02-04T01:34:17.261Z,1005.62
2018-02-04T01:35:17.247Z,1005.61
2018-02-04T01:36:17.231Z,1005.61
2018-02-04T01:37:17.325Z,1005.66
2018-02-04T01:38:17.212Z,1005.66
2018-02-04T01:39:17.206Z,1005.61
2018-02-04T01:40:17.190Z,1005.63
2018-02-04T01:41:17.179Z,1005.65
2018-02-04T01:42:17.162Z,1005.68
2018-02-04T01:43:17.151Z,1005.64
2018-02-04T01:44:17.141Z,1005.73
2018-02-04T01:45:17.135Z,1005.66
2018-02-04T01:46:17.115Z,1005.67
2018-02-04T01:47:17.109Z,1005.68
2018-02-04T01:48:17.104Z,1005.69
2018-02-04T01:49:17.082Z,1005.70
2018-02-04T01:50:17.100Z,1005.70
2018-02-04T01:51:17.061Z,1005.69
2018-02-04T01:52:17.048Z,1005.63
2018-02-04T01:53:17.043Z,1005.69
2018-02-04T01:54:17.030Z,1005.66
2018-02-04T01:55:17.013Z,1005.70
2018-02-04T01:56:16.999Z,1005.70
2018-02-04T01:57:16.996Z,1005.71
2018-02-04T01:58:16.970Z,1005.76
2018-02-04T01:59:16.960Z,1005.68
2018-02-04T02:00:16.953Z,1005.70
2018-02-04T02:01:16.958Z,1005.75
2018-02-04T02:02:16.926Z,1005.72
2018-02-04T02:03:16.916Z,1005.72
2018-02-04T02:04:16.901Z,1005.70
2018-02-04T02:05:16.890Z,1005.77
2018-02-04T02:06:16.884Z,1005.75
2018-02-04T02:07:16.879Z,1005.77
2018-02-04T02:08:16.855Z,1005.79
2018-02-04T02:09:16.846Z,1005.80
2018-02-04T02:10:16.838Z,1005.79
2018-02-04T02:11:16.826Z,1005.78
2018-02-04T02:12:16.810Z,1005.80
2018-02-04T02:13:16.805Z,1005.78
2018-02-04T02:14:16.783Z,1005.77
2018-02-04T02:15:16.779Z,1005.80
2018-02-04T02:16:16.770Z,1005.78
2018-02-04T02:17:16.755Z,1005.78
2018-02-04T02:18:16.744Z,1005.80
2018-02-04T02:19:16.728Z,1005.83
2018-02-04T02:20:16.714Z,1005.87
2018-02-04T02:21:16.708Z,1005.84
2018-02-04T02:22:16.700Z,1005.85
2018-02-04T02:23:16.689Z,1005.88
2018-02-04T02:24:16.673Z,1005.86
2018-02-04T02:25:16.657Z,1005.92
2018-02-04T02:26:16.653Z,1005.88
2018-02-04T02:27:16.643Z,1005.89
2018-02-04T02:28:16.631Z,1005.88
2018-02-04T02:29:16.615Z,1005.91
2018-02-04T02:30:16.600Z,1005.90
2018-02-04T02:31:16.588Z,1005.89
2018-02-04T02:32:16.579Z,1005.93
2018-02-04T02:33:16.569Z,1005.93
2018-02-04T02:34:16.552Z,1005.93
2018-02-04T02:35:16.546Z,1005.95
2018-02-04T02:36:16.537Z,1005.98
2018-02-04T02:37:16.521Z,1005.99
2018-02-04T02:38:16.517Z,1006.02
2018-02-04T02:39:16.503Z,1006.01
2018-02-04T02:40:16.485Z,1006.01
2018-02-04T02:41:16.475Z,1006.03
2018-02-04T02:42:16.465Z,1006.08
2018-02-04T02:43:16.458Z,1006.06
2018-02-04T02:44:16.439Z,1006.11
2018-02-04T02:45:16.439Z,1006.11
2018-02-04T02:46:16.413Z,1006.09
2018-02-04T02:47:16.406Z,1006.12
2018-02-04T02:48:16.397Z,1006.15
2018-02-04T02:49:16.385Z,1006.19
2018-02-04T02:50:16.371Z,1006.23
2018-02-04T02:51:16.362Z,1006.25
2018-02-04T02:52:16.350Z,1006.26
2018-02-04T02:53:16.337Z,1006.28
2018-02-04T02:54:16.325Z,1006.28
2018-02-04T02:55:16.316Z,1006.28
2018-02-04T02:56:16.304Z,1006.31
2018-02-04T02:57:16.286Z,1006.30
2018-02-04T02:58:16.281Z,1006.33
2018-02-04T02:59:16.272Z,1006.35
2018-02-04T03:00:16.259Z,1006.35
2018-02-04T03:01:16.252Z,1006.38
2018-02-04T03:02:16.253Z,1006.40
2018-02-04T03:03:16.221Z,1006.38
2018-02-04T03:04:16.217Z,1006.44
2018-02-04T03:05:16.204Z,1006.42
2018-02-04T03:06:16.186Z,1006.45
2018-02-04T03:07:16.290Z,1006.47
2018-02-04T03:08:16.165Z,1006.47
2018-02-04T03:09:16.156Z,1006.50
2018-02-04T03:10:16.147Z,1006.53
2018-02-04T03:11:16.139Z,1006.53
2018-02-04T03:12:16.135Z,1006.52
2018-02-04T03:13:16.109Z,1006.54
2018-02-04T03:14:16.099Z,1006.53
2018-02-04T03:15:16.087Z,1006.59
2018-02-04T03:16:16.077Z,1006.58
2018-02-04T03:17:16.066Z,1006.62
2018-02-04T03:18:16.057Z,1006.60
2018-02-04T03:19:16.041Z,1006.57
2018-02-04T03:20:16.031Z,1006.65
2018-02-04T03:21:16.038Z,1006.65
2018-02-04T03:22:16.004Z,1006.67
2018-02-04T03:23:15.997Z,1006.72
2018-02-04T03:24:15.986Z,1006.71
2018-02-04T03:25:15.977Z,1006.73
2018-02-04T03:26:15.967Z,1006.72
2018-02-04T03:27:15.959Z,1006.72
2018-02-04T03:28:15.939Z,1006.76
2018-02-04T03:29:15.928Z,1006.74
2018-02-04T03:30:15.921Z,1006.77
2018-02-04T03:31:15.915Z,1006.78
2018-02-04T03:32:15.902Z,1006.75
2018-02-04T03:33:15.892Z,1006.83
2018-02-04T03:34:15.871Z,1006.83
2018-02-04T03:35:15.859Z,1006.83
2018-02-04T03:36:15.856Z,1006.88
2018-02-04T03:37:15.846Z,1006.90
2018-02-04T03:38:15.829Z,1006.93
2018-02-04T03:39:15.821Z,1006.97
2018-02-04T03:40:15.805Z,1006.97
2018-02-04T03:41:15.796Z,1006.98
2018-02-04T03:42:15.784Z,1006.98
2018-02-04T03:43:15.778Z,1006.97
2018-02-04T03:44:15.760Z,1007.03
2018-02-04T03:45:15.748Z,1007.05
2018-02-04T03:46:15.740Z,1007.08
2018-02-04T03:47:15.729Z,1007.08
2018-02-04T03:48:15.720Z,1007.09
2018-02-04T03:49:15.708Z,1007.07
2018-02-04T03:50:15.697Z,1007.09
2018-02-04T03:51:15.681Z,1007.13
2018-02-04T03:52:15.676Z,1007.12
2018-02-04T03:53:15.687Z,1007.14
2018-02-04T03:54:15.650Z,1007.14
2018-02-04T03:55:15.643Z,1007.18
2018-02-04T03:56:15.628Z,1007.23
2018-02-04T03:57:15.613Z,1007.20
2018-02-04T03:58:15.610Z,1007.19
2018-02-04T03:59:15.598Z,1007.22
2018-02-04T04:00:15.579Z,1007.22
2018-02-04T04:01:15.568Z,1007.23
2018-02-04T04:02:15.566Z,1007.24
2018-02-04T04:03:15.549Z,1007.21
2018-02-04T04:04:15.540Z,1007.23
2018-02-04T04:05:15.530Z,1007.24
2018-02-04T04:06:15.515Z,1007.27
2018-02-04T04:07:15.505Z,1007.29
2018-02-04T04:08:15.491Z,1007.27
2018-02-04T04:09:15.483Z,1007.30
2018-02-04T04:10:15.467Z,1007.31
2018-02-04T04:11:15.455Z,1007.32
2018-02-04T04:12:15.441Z,1007.34
2018-02-04T04:13:15.435Z,1007.35
2018-02-04T04:14:15.426Z,1007.40
2018-02-04T04:15:15.418Z,1007.40
2018-02-04T04:16:15.398Z,1007.44
2018-02-04T04:17:15.390Z,1007.44
2018-02-04T04:18:15.380Z,1007.49
2018-02-04T04:19:15.370Z,1007.48
2018-02-04T04:20:15.358Z,1007.49
2018-02-04T04:21:15.345Z,1007.50
2018-02-04T04:22:15.343Z,1007.52
2018-02-04T04:23:15.318Z,1007.53
2018-02-04T04:24:15.312Z,1007.55
2018-02-04T04:25:15.302Z,1007.58
2018-02-04T04:26:15.290Z,1007.59
2018-02-04T04:27:15.277Z,1007.63
2018-02-04T04:28:15.273Z,1007.62
2018-02-04T04:29:15.258Z,1007.64
2018-02-04T04:30:15.243Z,1007.64
2018-02-04T04:31:15.535Z,1007.64
2018-02-04T04:32:15.219Z,1007.67
2018-02-04T04:33:15.216Z,1007.68
2018-02-04T04:34:15.218Z,1007.68
2018-02-04T04:35:15.189Z,1007.72
2018-02-04T04:36:15.183Z,1007.73
2018-02-04T04:37:15.168Z,1007.70
2018-02-04T04:38:15.153Z,1007.78
2018-02-04T04:39:15.142Z,1007.78
2018-02-04T04:40:15.132Z,1007.77
2018-02-04T04:41:15.123Z,1007.76
2018-02-04T04:42:15.111Z,1007.74
2018-02-04T04:43:15.096Z,1007.73
2018-02-04T04:44:15.093Z,1007.74
2018-02-04T04:45:15.079Z,1007.78
2018-02-04T04:46:15.069Z,1007.82
2018-02-04T04:47:15.063Z,1007.82
2018-02-04T04:48:15.044Z,1007.84
2018-02-04T04:49:15.032Z,1007.83
2018-02-04T04:50:15.029Z,1007.85
2018-02-04T04:51:15.015Z,1007.81
2018-02-04T04:52:15.007Z,1007.86
2018-02-04T04:53:14.990Z,1007.92
2018-02-04T04:54:14.984Z,1007.92
2018-02-04T04:55:14.968Z,1007.92
2018-02-04T04:56:14.988Z,1007.93
2018-02-04T04:57:14.952Z,1007.90
2018-02-04T04:58:14.934Z,1007.93
2018-02-04T04:59:14.924Z,1007.92
2018-02-04T05:00:14.909Z,1007.94
2018-02-04T05:01:15.148Z,1007.96
2018-02-04T05:02:14.898Z,1007.94
2018-02-04T05:03:14.882Z,1007.99
2018-02-04T05:04:14.871Z,1007.96
2018-02-04T05:05:14.855Z,1007.98
2018-02-04T05:06:14.855Z,1007.95
2018-02-04T05:07:14.837Z,1007.97
2018-02-04T05:08:14.828Z,1007.95
2018-02-04T05:09:14.817Z,1007.92
2018-02-04T05:10:14.805Z,1007.96
2018-02-04T05:11:14.791Z,1007.96
2018-02-04T05:12:14.781Z,1008.02
2018-02-04T05:13:14.771Z,1007.99
2018-02-04T05:14:14.762Z,1008.04
2018-02-04T05:15:14.746Z,1008.04
2018-02-04T05:16:14.736Z,1008.08
2018-02-04T05:17:14.755Z,1008.00
2018-02-04T05:18:14.720Z,1008.03
2018-02-04T05:19:14.712Z,1008.05
2018-02-04T05:20:14.698Z,1008.06
2018-02-04T05:21:14.686Z,1008.05
2018-02-04T05:22:14.671Z,1008.09
2018-02-04T05:23:14.660Z,1008.04
2018-02-04T05:24:14.653Z,1008.02
2018-02-04T05:25:14.636Z,1008.01
2018-02-04T05:26:14.630Z,1008.00
2018-02-04T05:27:14.622Z,1008.06
2018-02-04T05:28:14.607Z,1008.09
2018-02-04T05:29:14.598Z,1008.11
2018-02-04T05:30:14.590Z,1008.12
2018-02-04T05:31:14.577Z,1008.13
2018-02-04T05:32:14.571Z,1008.11
2018-02-04T05:33:14.553Z,1008.11
2018-02-04T05:34:14.547Z,1008.16
2018-02-04T05:35:14.527Z,1008.14
2018-02-04T05:36:14.526Z,1008.13
2018-02-04T05:37:14.510Z,1008.15
2018-02-04T05:38:14.506Z,1008.15
2018-02-04T05:39:14.483Z,1008.20
2018-02-04T05:40:14.475Z,1008.20
2018-02-04T05:41:14.464Z,1008.22
2018-02-04T05:42:14.458Z,1008.21
2018-02-04T05:43:14.446Z,1008.24
2018-02-04T05:44:14.434Z,1008.25
2018-02-04T05:45:14.417Z,1008.27
2018-02-04T05:46:14.411Z,1008.32
2018-02-04T05:47:14.404Z,1008.33
2018-02-04T05:48:14.390Z,1008.30
2018-02-04T05:49:14.385Z,1008.36
2018-02-04T05:50:14.367Z,1008.40
2018-02-04T05:51:14.368Z,1008.41
2018-02-04T05:52:14.368Z,1008.39
2018-02-04T05:53:14.339Z,1008.43
2018-02-04T05:54:14.328Z,1008.44
2018-02-04T05:55:14.318Z,1008.43
2018-02-04T05:56:14.301Z,1008.47
2018-02-04T05:57:14.303Z,1008.44
2018-02-04T05:58:14.281Z,1008.46
2018-02-04T05:59:14.278Z,1008.48
2018-02-04T06:00:14.257Z,1008.48
2018-02-04T06:01:14.249Z,1008.51
2018-02-04T06:02:14.240Z,1008.48
2018-02-04T06:03:14.230Z,1008.50
2018-02-04T06:04:14.218Z,1008.53
2018-02-04T06:05:14.206Z,1008.52
2018-02-04T06:06:14.191Z,1008.54
2018-02-04T06:07:14.181Z,1008.57
2018-02-04T06:08:14.173Z,1008.58
2018-02-04T06:09:14.164Z,1008.62
2018-02-04T06:10:14.161Z,1008.62
2018-02-04T06:11:14.139Z,1008.64
2018-02-04T06:12:14.133Z,1008.66
2018-02-04T06:13:14.125Z,1008.64
2018-02-04T06:14:14.116Z,1008.63
2018-02-04T06:15:14.103Z,1008.64
2018-02-04T06:16:14.085Z,1008.64
2018-02-04T06:17:14.075Z,1008.63
2018-02-04T06:18:14.069Z,1008.64
2018-02-04T06:19:14.057Z,1008.64
2018-02-04T06:20:14.054Z,1008.69
2018-02-04T06:21:14.038Z,1008.63
2018-02-04T06:22:14.027Z,1008.57
2018-02-04T06:23:14.015Z,1008.65
2018-02-04T06:24:14.003Z,1008.65
2018-02-04T06:25:13.999Z,1008.70
2018-02-04T06:26:13.982Z,1008.72
2018-02-04T06:27:13.974Z,1008.74
2018-02-04T06:28:13.963Z,1008.77
2018-02-04T06:29:13.950Z,1008.79
2018-02-04T06:30:13.941Z,1008.74
2018-02-04T06:31:13.933Z,1008.82
2018-02-04T06:32:13.913Z,1008.76
2018-02-04T06:33:13.902Z,1008.74
2018-02-04T06:34:13.897Z,1008.72
2018-02-04T06:35:13.887Z,1008.76
2018-02-04T06:36:13.877Z,1008.78
2018-02-04T06:37:13.868Z,1008.84
2018-02-04T06:38:13.851Z,1008.86
2018-02-04T06:39:13.842Z,1008.90
2018-02-04T06:40:13.838Z,1008.97
2018-02-04T06:41:13.823Z,1009.02
2018-02-04T06:42:13.808Z,1009.02
2018-02-04T06:43:13.797Z,1009.02
2018-02-04T06:44:13.783Z,1009.04
2018-02-04T06:45:13.772Z,1009.03
2018-02-04T06:46:13.765Z,1009.04
2018-02-04T06:47:13.756Z,1009.01
2018-02-04T06:48:13.745Z,1009.00
2018-02-04T06:49:13.731Z,1009.04
2018-02-04T06:50:13.723Z,1009.02
2018-02-04T06:51:13.713Z,1009.06
2018-02-04T06:52:13.700Z,1009.12
2018-02-04T06:53:13.694Z,1009.15
2018-02-04T06:54:13.675Z,1009.14
2018-02-04T06:55:13.664Z,1009.12
2018-02-04T06:56:13.656Z,1009.18
2018-02-04T06:57:13.646Z,1009.16
2018-02-04T06:58:13.636Z,1009.19
2018-02-04T06:59:13.620Z,1009.23
2018-02-04T07:00:13.612Z,1009.22
2018-02-04T07:01:13.600Z,1009.23
2018-02-04T07:02:13.594Z,1009.24
2018-02-04T07:03:13.581Z,1009.27
2018-02-04T07:04:13.570Z,1009.32
2018-02-04T07:05:13.553Z,1009.31
2018-02-04T07:06:13.546Z,1009.36
2018-02-04T07:07:13.535Z,1009.33
2018-02-04T07:08:13.528Z,1009.32
2018-02-04T07:09:13.516Z,1009.34
2018-02-04T07:10:13.501Z,1009.39
2018-02-04T07:11:13.490Z,1009.42
2018-02-04T07:12:13.484Z,1009.44
2018-02-04T07:13:13.476Z,1009.42
2018-02-04T07:14:13.461Z,1009.46
2018-02-04T07:15:13.457Z,1009.46
2018-02-04T07:16:13.450Z,1009.44
2018-02-04T07:17:13.421Z,1009.44
2018-02-04T07:18:13.423Z,1009.49
2018-02-04T07:19:13.405Z,1009.47
2018-02-04T07:20:13.392Z,1009.50
2018-02-04T07:21:13.394Z,1009.49
2018-02-04T07:22:13.374Z,1009.46
2018-02-04T07:23:13.364Z,1009.47
2018-02-04T07:24:13.349Z,1009.51
2018-02-04T07:25:13.347Z,1009.54
2018-02-04T07:26:13.325Z,1009.54
2018-02-04T07:27:13.313Z,1009.57
2018-02-04T07:28:13.306Z,1009.57
2018-02-04T07:29:13.297Z,1009.63
2018-02-04T07:30:13.285Z,1009.64
2018-02-04T07:31:13.274Z,1009.67
2018-02-04T07:32:13.266Z,1009.68
2018-02-04T07:33:13.256Z,1009.70
2018-02-04T07:34:13.244Z,1009.71
2018-02-04T07:35:13.235Z,1009.71
2018-02-04T07:36:13.236Z,1009.72
2018-02-04T07:37:13.310Z,1009.74
2018-02-04T07:38:13.199Z,1009.75
2018-02-04T07:39:13.191Z,1009.77
2018-02-04T07:40:13.176Z,1009.81
2018-02-04T07:41:13.168Z,1009.86
2018-02-04T07:42:13.163Z,1009.85
2018-02-04T07:43:13.151Z,1009.90
2018-02-04T07:44:13.133Z,1009.90
2018-02-04T07:45:13.125Z,1009.92
2018-02-04T07:46:13.117Z,1009.96
2018-02-04T07:47:13.106Z,1009.96
2018-02-04T07:48:13.096Z,1010.03
2018-02-04T07:49:13.089Z,1010.03
2018-02-04T07:50:13.069Z,1010.01
2018-02-04T07:51:13.059Z,1010.06
2018-02-04T07:52:13.052Z,1010.01
2018-02-04T07:53:13.044Z,1010.04
2018-02-04T07:54:13.028Z,1010.05
2018-02-04T07:55:13.118Z,1010.05
2018-02-04T07:56:13.004Z,1010.05
2018-02-04T07:57:12.992Z,1010.09
2018-02-04T07:58:12.987Z,1010.09
2018-02-04T07:59:12.983Z,1010.11
2018-02-04T08:00:12.967Z,1010.14
2018-02-04T08:01:12.953Z,1010.15
2018-02-04T08:02:12.948Z,1010.15
2018-02-04T08:03:12.933Z,1010.17
2018-02-04T08:04:12.922Z,1010.23
2018-02-04T08:05:12.913Z,1010.24
2018-02-04T08:06:12.899Z,1010.27
2018-02-04T08:07:12.915Z,1010.32
2018-02-04T08:08:12.876Z,1010.33
2018-02-04T08:09:12.866Z,1010.34
2018-02-04T08:10:12.852Z,1010.36
2018-02-04T08:11:12.842Z,1010.37
2018-02-04T08:12:12.831Z,1010.38
2018-02-04T08:13:12.821Z,1010.40
2018-02-04T08:14:12.813Z,1010.43
2018-02-04T08:15:12.803Z,1010.47
2018-02-04T08:16:12.798Z,1010.46
2018-02-04T08:17:12.780Z,1010.51
2018-02-04T08:18:12.772Z,1010.50
2018-02-04T08:19:12.761Z,1010.52
2018-02-04T08:20:12.745Z,1010.53
2018-02-04T08:21:12.734Z,1010.53
2018-02-04T08:22:12.720Z,1010.62
2018-02-04T08:23:12.710Z,1010.61
2018-02-04T08:24:12.707Z,1010.64
2018-02-04T08:25:12.693Z,1010.66
2018-02-04T08:26:12.680Z,1010.64
2018-02-04T08:27:12.668Z,1010.70
2018-02-04T08:28:12.654Z,1010.70
2018-02-04T08:29:12.644Z,1010.69
2018-02-04T08:30:12.637Z,1010.71
2018-02-04T08:31:12.626Z,1010.75
2018-02-04T08:32:12.615Z,1010.78
2018-02-04T08:33:12.605Z,1010.77
2018-02-04T08:34:12.595Z,1010.83
2018-02-04T08:35:12.585Z,1010.84
2018-02-04T08:36:12.571Z,1010.84
2018-02-04T08:37:12.566Z,1010.86
2018-02-04T08:38:12.545Z,1010.86
2018-02-04T08:39:12.541Z,1010.86
2018-02-04T08:40:12.546Z,1010.88
2018-02-04T08:41:12.517Z,1010.82
2018-02-04T08:42:12.503Z,1010.90
2018-02-04T08:43:12.494Z,1010.90
2018-02-04T08:44:12.486Z,1010.94
2018-02-04T08:45:12.485Z,1010.94
2018-02-04T08:46:12.459Z,1010.95
2018-02-04T08:47:12.451Z,1010.97
2018-02-04T08:48:12.437Z,1010.98
2018-02-04T08:49:12.423Z,1010.98
2018-02-04T08:50:12.414Z,1010.98
2018-02-04T08:51:12.402Z,1010.99
2018-02-04T08:52:12.392Z,1011.00
2018-02-04T08:53:12.383Z,1011.05
2018-02-04T08:54:12.365Z,1011.07
2018-02-04T08:55:12.354Z,1011.07
2018-02-04T08:56:12.347Z,1011.09
2018-02-04T08:57:12.336Z,1011.09
2018-02-04T08:58:12.318Z,1011.14
2018-02-04T08:59:12.307Z,1011.15
2018-02-04T09:00:12.297Z,1011.19
2018-02-04T09:01:12.289Z,1011.14
2018-02-04T09:02:12.278Z,1011.18
2018-02-04T09:03:12.271Z,1011.21
2018-02-04T09:04:12.251Z,1011.18
2018-02-04T09:05:12.241Z,1011.25
2018-02-04T09:06:12.240Z,1011.25
2018-02-04T09:07:12.323Z,1011.22
2018-02-04T09:08:12.258Z,1011.30
2018-02-04T09:09:12.207Z,1011.29
2018-02-04T09:10:12.182Z,1011.31
2018-02-04T09:11:12.176Z,1011.31
2018-02-04T09:12:12.165Z,1011.36
2018-02-04T09:13:12.180Z,1011.38
2018-02-04T09:14:12.138Z,1011.38
2018-02-04T09:15:12.129Z,1011.38
2018-02-04T09:16:12.115Z,1011.42
2018-02-04T09:17:12.102Z,1011.48
2018-02-04T09:18:12.097Z,1011.50
2018-02-04T09:19:12.135Z,1011.57
2018-02-04T09:20:12.074Z,1011.56
2018-02-04T09:21:12.059Z,1011.58
2018-02-04T09:22:12.052Z,1011.59
2018-02-04T09:23:12.048Z,1011.59
2018-02-04T09:24:12.034Z,1011.61
2018-02-04T09:25:12.022Z,1011.60
2018-02-04T09:26:12.008Z,1011.61
2018-02-04T09:27:11.998Z,1011.65
2018-02-04T09:28:11.987Z,1011.66
2018-02-04T09:29:11.983Z,1011.70
2018-02-04T09:30:11.963Z,1011.71
2018-02-04T09:31:11.951Z,1011.67
2018-02-04T09:32:11.941Z,1011.72
2018-02-04T09:33:11.932Z,1011.71
2018-02-04T09:34:11.923Z,1011.68
2018-02-04T09:35:11.918Z,1011.73
2018-02-04T09:36:11.903Z,1011.75
2018-02-04T09:37:11.891Z,1011.78
2018-02-04T09:38:11.877Z,1011.81
2018-02-04T09:39:11.867Z,1011.80
2018-02-04T09:40:11.853Z,1011.90
2018-02-04T09:41:11.842Z,1011.90
2018-02-04T09:42:11.840Z,1011.91
2018-02-04T09:43:11.826Z,1011.95
2018-02-04T09:44:11.868Z,1011.98
2018-02-04T09:45:11.803Z,1012.02
2018-02-04T09:46:11.801Z,1012.00
2018-02-04T09:47:11.793Z,1012.06
2018-02-04T09:48:11.782Z,1012.09
2018-02-04T09:49:11.764Z,1012.12
2018-02-04T09:50:11.750Z,1012.13
2018-02-04T09:51:11.743Z,1012.12
2018-02-04T09:52:11.732Z,1012.12
2018-02-04T09:53:11.727Z,1012.14
2018-02-04T09:54:11.711Z,1012.15
2018-02-04T09:55:11.697Z,1012.16
2018-02-04T09:56:11.692Z,1012.20
2018-02-04T09:57:11.678Z,1012.20
2018-02-04T09:58:11.672Z,1012.24
2018-02-04T09:59:11.668Z,1012.28
2018-02-04T10:00:11.649Z,1012.27
2018-02-04T10:01:11.634Z,1012.30
2018-02-04T10:02:11.632Z,1012.31
2018-02-04T10:03:11.633Z,1012.34
2018-02-04T10:04:11.612Z,1012.37
2018-02-04T10:05:11.599Z,1012.39
2018-02-04T10:06:11.582Z,1012.43
2018-02-04T10:07:11.575Z,1012.44
2018-02-04T10:08:11.585Z,1012.50
2018-02-04T10:09:11.557Z,1012.52
2018-02-04T10:10:11.540Z,1012.54
2018-02-04T10:11:11.537Z,1012.51
2018-02-04T10:12:11.515Z,1012.49
2018-02-04T10:13:11.504Z,1012.54
2018-02-04T10:14:11.496Z,1012.57
2018-02-04T10:15:11.489Z,1012.57
2018-02-04T10:16:11.473Z,1012.61
2018-02-04T10:17:11.473Z,1012.60
2018-02-04T10:18:11.456Z,1012.65
2018-02-04T10:19:11.477Z,1012.62
2018-02-04T10:20:11.431Z,1012.69
2018-02-04T10:21:11.420Z,1012.69
2018-02-04T10:22:11.405Z,1012.72
2018-02-04T10:23:11.395Z,1012.74
2018-02-04T10:24:11.397Z,1012.80
2018-02-04T10:25:11.377Z,1012.78
2018-02-04T10:26:11.363Z,1012.80
2018-02-04T10:27:11.353Z,1012.81
2018-02-04T10:28:11.349Z,1012.84
2018-02-04T10:29:11.332Z,1012.85
2018-02-04T10:30:11.326Z,1012.87
2018-02-04T10:31:11.320Z,1012.87
2018-02-04T10:32:11.304Z,1012.91
2018-02-04T10:33:11.288Z,1012.90
2018-02-04T10:34:11.288Z,1012.96
2018-02-04T10:35:11.282Z,1012.92
2018-02-04T10:36:11.291Z,1012.97
2018-02-04T10:37:11.358Z,1012.90
2018-02-04T10:38:11.242Z,1012.95
2018-02-04T10:39:11.233Z,1012.98
2018-02-04T10:40:11.233Z,1012.93
2018-02-04T10:41:11.213Z,1012.98
2018-02-04T10:42:11.195Z,1013.00
2018-02-04T10:43:11.188Z,1012.99
2018-02-04T10:44:11.182Z,1013.01
2018-02-04T10:45:11.165Z,1013.01
2018-02-04T10:46:11.160Z,1013.01
2018-02-04T10:47:11.148Z,1012.99
2018-02-04T10:48:11.166Z,1013.01
2018-02-04T10:49:11.125Z,1013.04
2018-02-04T10:50:11.117Z,1013.05
2018-02-04T10:51:11.103Z,1013.08
2018-02-04T10:52:11.094Z,1013.08
2018-02-04T10:53:11.082Z,1013.06
2018-02-04T10:54:11.067Z,1013.07
2018-02-04T10:55:11.158Z,1013.06
2018-02-04T10:56:11.075Z,1013.11
2018-02-04T10:57:11.039Z,1013.15
2018-02-04T10:58:11.026Z,1013.18
2018-02-04T10:59:11.014Z,1013.15
2018-02-04T11:00:11.001Z,1013.19
2018-02-04T11:01:10.992Z,1013.18
2018-02-04T11:02:10.983Z,1013.22
2018-02-04T11:03:10.976Z,1013.23
2018-02-04T11:04:10.976Z,1013.28
2018-02-04T11:05:10.949Z,1013.28
2018-02-04T11:06:10.944Z,1013.28
2018-02-04T11:07:10.931Z,1013.30
2018-02-04T11:08:10.920Z,1013.35
2018-02-04T11:09:10.908Z,1013.38
2018-02-04T11:10:10.893Z,1013.41
2018-02-04T11:11:10.887Z,1013.40
2018-02-04T11:12:10.888Z,1013.38
2018-02-04T11:13:10.869Z,1013.42
2018-02-04T11:14:10.855Z,1013.38
2018-02-04T11:15:10.840Z,1013.41
2018-02-04T11:16:10.840Z,1013.45
2018-02-04T11:17:10.821Z,1013.43
2018-02-04T11:18:10.815Z,1013.47
2018-02-04T11:19:10.807Z,1013.51
2018-02-04T11:20:10.867Z,1013.50
2018-02-04T11:21:10.779Z,1013.51
2018-02-04T11:22:10.773Z,1013.53
2018-02-04T11:23:10.762Z,1013.56
2018-02-04T11:24:10.758Z,1013.57
2018-02-04T11:25:10.750Z,1013.58
2018-02-04T11:26:10.730Z,1013.57
2018-02-04T11:27:10.721Z,1013.57
2018-02-04T11:28:10.728Z,1013.60
2018-02-04T11:29:10.708Z,1013.60
2018-02-04T11:30:10.705Z,1013.64
2018-02-04T11:31:10.683Z,1013.65
2018-02-04T11:32:10.671Z,1013.66
2018-02-04T11:33:10.659Z,1013.72
2018-02-04T11:34:10.676Z,1013.69
2018-02-04T11:35:10.651Z,1013.73
2018-02-04T11:36:10.842Z,1013.72
2018-02-04T11:37:10.622Z,1013.71
2018-02-04T11:38:10.620Z,1013.75
2018-02-04T11:39:10.608Z,1013.74
2018-02-04T11:40:10.593Z,1013.77
2018-02-04T11:41:10.583Z,1013.79
2018-02-04T11:42:10.571Z,1013.78
2018-02-04T11:43:10.566Z,1013.79
2018-02-04T11:44:10.549Z,1013.80
2018-02-04T11:45:10.543Z,1013.83
2018-02-04T11:46:10.534Z,1013.84
2018-02-04T11:47:10.523Z,1013.84
2018-02-04T11:48:10.516Z,1013.94
2018-02-04T11:49:10.504Z,1013.94
2018-02-04T11:50:10.491Z,1013.93
2018-02-04T11:51:10.485Z,1013.96
2018-02-04T11:52:10.790Z,1013.94
2018-02-04T11:53:10.464Z,1013.96
2018-02-04T11:54:10.446Z,1013.98
2018-02-04T11:55:10.439Z,1013.98
2018-02-04T11:56:10.425Z,1014.01
2018-02-04T11:57:10.415Z,1014.03
2018-02-04T11:58:10.409Z,1014.03
2018-02-04T11:59:10.397Z,1014.02
2018-02-04T12:00:10.399Z,1014.00
2018-02-04T12:01:10.371Z,1014.02
2018-02-04T12:02:10.412Z,1014.02
2018-02-04T12:03:10.353Z,1014.05
2018-02-04T12:04:10.346Z,1014.05
2018-02-04T12:05:10.332Z,1014.01